Eagle Turin — 9VMG6 — position and weather

sailwx.info

Track history (hours):
 
Tides and Currents Weather Stations Pressure Air Temp Water Temp Dewpoint Dewpoint Depression Visibility Wind Speed Wind Dir Waves Ship Positions

Eagle Turin

Last reported at 2015-May-06 09:33 UTC. Time now 2015-May-06 15:31 UTC.
Position N 27°01' W 079°43'.

Length 246 m; draft 10.9 m.

Type: Tanker. MMSI: 565770000.

Date/timePositionNaut miles runAvg speedWind from/ knotsBaromVisibWave heightAir tempDewpointWater temp
2015-May-06 09:33N 27°01' W 079°43'1413.7
2015-May-06 08:33N 26°47' W 079°44'1313.2
2015-May-06 07:33N 26°34' W 079°45'1413.6
2015-May-06 06:33N 26°21' W 079°46'1413.8
2015-May-06 05:33N 26°07' W 079°46'1414.0
2015-May-06 04:33N 25°53' W 079°48'1414.3
2015-May-06 03:33N 25°39' W 079°50'  
2015-May-02 08:23N 28°35' W 094°22'  
2015-Apr-27 03:30N 29°24' W 093°38'6 6.8
2015-Apr-27 02:33N 29°17' W 093°39'3911.6
2015-Apr-26 23:11N 28°49' W 094°10'31 4.6
2015-Apr-26 16:28N 28°29' W 094°37'0 0.0
2015-Apr-26 13:10N 28°30' W 094°37'0 0.1
2015-Apr-26 12:17N 28°30' W 094°37'  
Track history (hours):
 
Tides and Currents Weather Stations Pressure Air Temp Water Temp Dewpoint Dewpoint Depression Visibility Wind Speed Wind Dir Waves Ship Positions

Eagle Turin

Last reported at 2015-May-06 09:33 UTC. Time now 2015-May-06 15:31 UTC.
Position N 27°01' W 079°43'.

Length 246 m; draft 10.9 m.

Type: Tanker. MMSI: 565770000.

Date/timePositionNaut miles runAvg speedWind from/ knotsBaromVisibWave heightAir tempDewpointWater temp
2015-May-06 09:33N 27°01' W 079°43'1413.7
2015-May-06 08:33N 26°47' W 079°44'1313.2
2015-May-06 07:33N 26°34' W 079°45'1413.6
2015-May-06 06:33N 26°21' W 079°46'1413.8
2015-May-06 05:33N 26°07' W 079°46'1414.0
2015-May-06 04:33N 25°53' W 079°48'1414.3
2015-May-06 03:33N 25°39' W 079°50'  
2015-May-02 08:23N 28°35' W 094°22'  
2015-Apr-27 03:30N 29°24' W 093°38'6 6.8
2015-Apr-27 02:33N 29°17' W 093°39'3911.6
2015-Apr-26 23:11N 28°49' W 094°10'31 4.6
2015-Apr-26 16:28N 28°29' W 094°37'0 0.0
2015-Apr-26 13:10N 28°30' W 094°37'0 0.1
2015-Apr-26 12:17N 28°30' W 094°37'  

Dump ship's entire track history